Easton, WA

6:30 AM PDT on July 27, 2016 (GMT -0700)
Cle Elum Wa - GiddyLodge | | Change Station

Elev 2117 ft 47.21 °N, 121.11 °W | Updated 1 minute ago

Clear
Clear
60.3 °F
Feels Like 60.3 °F
N
4.0
Wind Variable Wind from NNW
Gusts 7.0 mph

Today
High -- | Low -- °F
--% Chance of Precip.
Yesterday
High -- | Low -- °F
Precip. -- in
Pressure 30.14 in
Visibility -9999.0 miles
Clouds Clear
Dew Point 54 °F
Humidity 81%
Rainfall 0.00 in
Snow Depth Not available.
5:37 AM 8:43 PM
Last Quarter, 43% visible
METAR KSMP 271256Z AUTO 22005KT CLR 11/09 A3019 RMK AO2 SLP205 T01110094
Pressure 30.14 in
Visibility -9999.0 miles
Clouds Clear
Dew Point 54 °F
Humidity 81%
Rainfall 0.00 in
Snow Depth Not available.
5:37 AM 8:43 PM
Last Quarter, 43% visible
METAR KSMP 271256Z AUTO 22005KT CLR 11/09 A3019 RMK AO2 SLP205 T01110094

10-Day Weather Forecast

Almanac

Astronomy

Jul. 27, 2016 Rise Set
Actual Time
Civil Twilight
Nautical Twilight
Astronomical Twilight
Moon
Length of Visible Light
Length of Day
Tomorrow will be .
, % of the Moon is Illuminated

Today's Extremes

State Highs State Lows

Community

WunderPhotos

Upload Photos

1,927,842 photos uploaded!

WunderBlog® & News

Nearby

Air Quality

  Air Quality AQ Index Pollutant
Not available.

Snow Depth

Station Depth Elevation

Earthquake Activity

City Distance Mag. Time & Date
Minimum magnitude displayed is 2.5.

Coastal Water Temperatures

Place Temperature

Stations

Nearby Weather Stations

Station Location Temp. Windchill Dew Point Humidity Wind Precip. Elev Updated Type
                   

Watches & Warnings

There are currently no watches in effect.